Time;durP1;ratioP1;P1;durP2;ratioP2;P2;SDS_P1;SDS_P2;PMS_P1;PMS_P2;Temp;Humidity;BMP_temperature;BMP_pressure;BME280_temperature;BME280_humidity;BME280_pressure;Samples;Min_cycle;Max_cycle;Signal;HPM_P1;HPM_P2
2023/03/03 00:00:45;;;;;;;111.15;31.00;;;-0.20;99.90;;;;;;5022223;28;20040;-72
2023/03/03 00:03:16;;;;;;;115.95;38.60;;;-0.20;99.90;;;;;;5000150;28;20061;-72
2023/03/03 00:05:42;;;;;;;158.98;40.00;;;-0.30;99.90;;;;;;5001264;28;20040;-73
2023/03/03 00:08:09;;;;;;;142.52;42.25;;;-0.20;99.90;;;;;;5006191;28;20038;-73
2023/03/03 00:10:38;;;;;;;166.23;45.95;;;-0.20;99.90;;;;;;5000881;28;20103;-73
2023/03/03 00:13:16;;;;;;;116.82;33.75;;;-0.20;99.90;;;;;;5001533;28;20275;-73
2023/03/03 00:15:43;;;;;;;161.15;41.92;;;-0.30;99.90;;;;;;5014351;28;20041;-73
2023/03/03 00:18:34;;;;;;;140.40;41.95;;;-0.30;99.90;;;;;;5015089;28;20241;-73
2023/03/03 00:21:03;;;;;;;124.90;39.08;;;-0.20;99.90;;;;;;5015106;28;20041;-72
2023/03/03 00:23:35;;;;;;;146.05;41.47;;;-0.10;99.90;;;;;;5020809;28;20048;-74
2023/03/03 00:26:15;;;;;;;126.78;33.13;;;-0.10;99.90;;;;;;5019443;28;20088;-72
2023/03/03 00:28:47;;;;;;;153.88;40.67;;;-0.20;99.90;;;;;;5024944;28;20064;-73
2023/03/03 00:31:18;;;;;;;92.60;28.48;;;-0.30;99.90;;;;;;4998679;28;20049;-72
2023/03/03 00:33:53;;;;;;;115.95;34.70;;;-0.30;99.90;;;;;;5005180;28;20047;-72
2023/03/03 00:36:30;;;;;;;108.75;28.90;;;-0.30;99.90;;;;;;4999572;28;20061;-73
2023/03/03 00:39:23;;;;;;;121.40;38.08;;;-0.40;99.90;;;;;;4999501;28;20106;-72
2023/03/03 00:41:50;;;;;;;141.98;43.67;;;-0.40;99.90;;;;;;5015512;28;20073;-73
2023/03/03 00:44:41;;;;;;;114.47;38.47;;;-0.20;99.90;;;;;;5021489;28;20039;-74
2023/03/03 00:47:42;;;;;;;119.20;38.03;;;-0.10;99.90;;;;;;5019114;28;20041;-73
2023/03/03 00:50:09;;;;;;;121.20;34.58;;;-0.20;99.90;;;;;;4975502;28;20045;-73
2023/03/03 00:52:44;;;;;;;127.38;36.30;;;-0.30;99.90;;;;;;4995832;28;20071;-73
2023/03/03 00:55:11;;;;;;;141.65;40.10;;;-0.30;99.90;;;;;;5003497;28;20462;-73
2023/03/03 00:57:38;;;;;;;134.20;38.47;;;-0.30;99.90;;;;;;5003422;28;20044;-75
2023/03/03 01:00:08;;;;;;;109.57;34.35;;;-0.20;99.90;;;;;;4998172;28;20226;-74
2023/03/03 01:02:35;;;;;;;144.70;38.85;;;-0.30;99.90;;;;;;4994140;28;21030;-73
2023/03/03 01:05:02;;;;;;;144.30;40.42;;;-0.30;99.90;;;;;;5006026;28;20128;-73
2023/03/03 01:07:29;;;;;;;162.70;39.78;;;-0.30;99.90;;;;;;5016731;28;20679;-74
2023/03/03 01:09:55;;;;;;;176.30;46.08;;;-0.40;99.90;;;;;;5010276;28;20071;-74
2023/03/03 01:12:23;;;;;;;202.02;44.08;;;-0.40;99.90;;;;;;4986420;28;20138;-74
2023/03/03 01:14:51;;;;;;;180.82;41.40;;;-0.40;99.90;;;;;;4998307;28;20045;-74
2023/03/03 01:17:18;;;;;;;203.65;43.95;;;-0.30;99.90;;;;;;4995862;28;20512;-74
2023/03/03 01:19:45;;;;;;;140.90;40.72;;;-0.30;99.90;;;;;;5022408;28;20037;-74
2023/03/03 01:22:11;;;;;;;184.93;43.35;;;-0.20;99.90;;;;;;5020842;28;20128;-74
2023/03/03 01:24:38;;;;;;;188.75;43.88;;;-0.20;99.90;;;;;;4995370;28;20030;-75
2023/03/03 01:27:05;;;;;;;143.57;42.15;;;-0.30;99.90;;;;;;5024415;28;20081;-74
2023/03/03 01:29:31;;;;;;;142.52;38.83;;;-0.30;99.90;;;;;;5000927;28;20037;-74
2023/03/03 01:31:58;;;;;;;193.55;43.45;;;-0.30;99.90;;;;;;4996144;28;20041;-75
2023/03/03 01:34:25;;;;;;;159.90;42.28;;;-0.30;99.90;;;;;;5000532;28;20427;-70
2023/03/03 01:36:51;;;;;;;145.23;42.03;;;-0.40;99.90;;;;;;5005973;28;20809;-74
2023/03/03 01:39:18;;;;;;;137.60;39.03;;;-0.20;99.90;;;;;;4996630;28;20049;-73
2023/03/03 01:41:45;;;;;;;118.25;37.15;;;-0.20;99.90;;;;;;4980011;28;20118;-74
2023/03/03 01:44:14;;;;;;;127.50;37.35;;;-0.20;99.90;;;;;;4996828;28;20053;-74
2023/03/03 01:46:56;;;;;;;186.38;44.50;;;-0.20;99.90;;;;;;5000743;28;20246;-73
2023/03/03 01:49:34;;;;;;;170.45;39.03;;;-0.20;99.90;;;;;;5012034;28;20297;-74
2023/03/03 01:52:09;;;;;;;141.23;39.75;;;-0.30;99.90;;;;;;5015453;28;20472;-74
2023/03/03 01:54:42;;;;;;;220.25;45.00;;;-0.40;99.90;;;;;;5015049;28;20162;-74
2023/03/03 01:57:15;;;;;;;184.55;43.70;;;-0.40;99.90;;;;;;5023850;28;20044;-74
2023/03/03 01:59:48;;;;;;;323.45;52.72;;;-0.40;99.90;;;;;;5020374;28;20562;-74
2023/03/03 02:02:15;;;;;;;284.02;54.65;;;-0.40;99.90;;;;;;4995134;28;20049;-75
2023/03/03 02:04:42;;;;;;;186.65;44.47;;;-0.40;99.90;;;;;;5021026;28;20041;-72
2023/03/03 02:07:10;;;;;;;271.70;50.63;;;-0.30;99.90;;;;;;5020121;28;20072;-73
2023/03/03 02:10:06;;;;;;;179.77;43.40;;;-0.40;99.90;;;;;;4980944;28;20562;-73
2023/03/03 02:12:38;;;;;;;165.38;44.50;;;-0.30;99.90;;;;;;4991910;28;20049;-73
2023/03/03 02:15:24;;;;;;;231.88;41.75;;;-0.30;99.90;;;;;;5003630;28;20050;-72
2023/03/03 02:18:13;;;;;;;268.30;55.22;;;-0.50;99.90;;;;;;4998762;28;20041;-73
2023/03/03 02:21:04;;;;;;;227.40;47.47;;;-0.40;99.90;;;;;;4999628;28;20079;-73
2023/03/03 02:23:52;;;;;;;188.98;44.80;;;-0.40;99.90;;;;;;5015299;28;20145;-73
2023/03/03 02:26:25;;;;;;;181.93;41.58;;;-0.40;99.90;;;;;;4978687;28;20281;-76
2023/03/03 02:28:57;;;;;;;228.93;48.10;;;-0.40;99.90;;;;;;5002036;28;20099;-74
2023/03/03 02:31:27;;;;;;;205.18;47.45;;;-0.50;99.90;;;;;;5020585;28;20045;-74
2023/03/03 02:33:55;;;;;;;215.48;49.55;;;-0.40;99.90;;;;;;5023800;28;20110;-73
2023/03/03 02:36:28;;;;;;;492.02;67.25;;;-0.30;99.90;;;;;;5016889;28;20107;-72
2023/03/03 02:39:21;;;;;;;321.20;56.97;;;-0.30;99.90;;;;;;5005914;28;20073;-74
2023/03/03 02:42:10;;;;;;;315.40;56.13;;;-0.20;99.90;;;;;;5025330;28;20046;-74
2023/03/03 02:44:45;;;;;;;300.23;51.47;;;-0.30;99.90;;;;;;5008857;28;20222;-74
2023/03/03 02:47:12;;;;;;;362.92;54.13;;;-0.30;99.90;;;;;;5000584;28;20103;-74
2023/03/03 02:49:39;;;;;;;285.15;50.50;;;-0.30;99.90;;;;;;4999903;28;20396;-74
2023/03/03 02:52:08;;;;;;;365.63;57.30;;;-0.40;99.90;;;;;;5001124;28;20428;-74
2023/03/03 02:54:37;;;;;;;292.67;49.92;;;-0.50;99.90;;;;;;4983388;28;20679;-74
2023/03/03 02:57:06;;;;;;;401.23;60.22;;;-0.50;99.90;;;;;;5000903;28;20053;-74
2023/03/03 02:59:32;;;;;;;475.33;68.32;;;-0.50;99.90;;;;;;5001033;28;20095;-73
2023/03/03 03:02:07;;;;;;;316.83;62.60;;;-0.40;99.90;;;;;;5005072;28;20111;-74
2023/03/03 03:04:34;;;;;;;318.23;56.95;;;-0.30;99.90;;;;;;5000293;28;20613;-72
2023/03/03 03:07:01;;;;;;;329.98;61.33;;;-0.20;99.90;;;;;;5024865;28;20526;-74
2023/03/03 03:09:29;;;;;;;351.70;58.60;;;-0.10;99.90;;;;;;4999287;28;20102;-74
2023/03/03 03:12:01;;;;;;;357.70;62.90;;;-0.20;99.90;;;;;;5006333;28;20103;-75
2023/03/03 03:14:29;;;;;;;404.55;61.75;;;-0.30;99.90;;;;;;4999106;28;20084;-75
2023/03/03 03:16:57;;;;;;;351.20;62.38;;;-0.30;99.90;;;;;;4989560;28;20052;-74
2023/03/03 03:19:26;;;;;;;486.13;73.43;;;-0.30;99.90;;;;;;5002972;28;20041;-74
2023/03/03 03:21:53;;;;;;;349.00;59.38;;;-0.20;99.90;;;;;;4986950;28;20361;-73
2023/03/03 03:24:20;;;;;;;352.40;59.10;;;-0.20;99.90;;;;;;4984489;28;20076;-71
2023/03/03 03:26:53;;;;;;;336.60;54.58;;;-0.30;99.90;;;;;;5008511;28;20547;-74
2023/03/03 03:29:21;;;;;;;367.45;65.00;;;-0.40;99.90;;;;;;5004128;28;20048;-73
2023/03/03 03:31:48;;;;;;;425.45;64.70;;;-0.50;99.90;;;;;;5002760;28;20167;-72
2023/03/03 03:34:14;;;;;;;283.35;52.35;;;-0.60;99.90;;;;;;5011725;28;20342;-73
2023/03/03 03:36:42;;;;;;;302.85;51.22;;;-0.50;99.90;;;;;;4987790;28;20312;-74
2023/03/03 03:39:10;;;;;;;315.38;51.45;;;-0.40;99.90;;;;;;5004045;28;20412;-74
2023/03/03 03:41:41;;;;;;;431.83;62.88;;;-0.40;99.90;;;;;;5002008;28;20047;-74
2023/03/03 03:44:08;;;;;;;376.95;56.78;;;-0.50;99.90;;;;;;5002703;28;20060;-74
2023/03/03 03:46:35;;;;;;;313.45;53.58;;;-0.60;99.90;;;;;;5020631;28;20045;-74
2023/03/03 03:49:02;;;;;;;393.42;59.17;;;-0.60;99.90;;;;;;4988682;28;20132;-74
2023/03/03 03:51:30;;;;;;;316.50;55.17;;;-0.80;99.90;;;;;;4998226;28;20041;-74
2023/03/03 03:53:57;;;;;;;288.13;49.50;;;-0.80;99.90;;;;;;5008062;28;20447;-74
2023/03/03 03:56:23;;;;;;;272.55;50.03;;;-0.60;99.90;;;;;;4997527;28;20456;-74
2023/03/03 03:58:53;;;;;;;283.73;51.95;;;-0.60;99.90;;;;;;5000456;28;20304;-74
2023/03/03 04:01:20;;;;;;;282.42;49.47;;;-0.50;99.90;;;;;;4992705;28;20049;-74
2023/03/03 04:03:48;;;;;;;325.85;50.08;;;-0.40;99.90;;;;;;5000648;28;20044;-74
2023/03/03 04:06:18;;;;;;;329.65;51.30;;;-0.40;99.90;;;;;;5000866;28;20115;-73
2023/03/03 04:08:45;;;;;;;301.95;52.92;;;-0.50;99.90;;;;;;5002426;28;20064;-75
2023/03/03 04:11:13;;;;;;;443.23;59.03;;;-0.50;99.90;;;;;;5003474;28;20077;-74
2023/03/03 04:13:40;;;;;;;386.23;54.90;;;-0.50;99.90;;;;;;4998562;28;20436;-74
2023/03/03 04:16:08;;;;;;;349.70;52.42;;;-0.50;99.90;;;;;;5000294;28;20049;-73
2023/03/03 04:18:37;;;;;;;459.85;58.88;;;-0.30;99.90;;;;;;5005493;28;21090;-74
2023/03/03 04:21:04;;;;;;;379.13;52.33;;;-0.30;99.90;;;;;;5007473;28;20189;-73
2023/03/03 04:23:32;;;;;;;537.33;61.70;;;-0.30;99.90;;;;;;5003131;28;20052;-73
2023/03/03 04:26:00;;;;;;;352.42;55.25;;;-0.50;99.90;;;;;;4998245;28;20053;-73
2023/03/03 04:28:27;;;;;;;327.15;49.90;;;-0.50;99.90;;;;;;5006231;28;20550;-73
2023/03/03 04:30:54;;;;;;;323.85;51.15;;;-0.60;99.90;;;;;;5000625;28;20057;-74
2023/03/03 04:33:22;;;;;;;268.33;43.90;;;-0.60;99.90;;;;;;4994605;28;20057;-74
2023/03/03 04:35:50;;;;;;;227.18;40.97;;;-0.60;99.90;;;;;;4995198;28;20151;-73
2023/03/03 04:38:17;;;;;;;255.60;38.95;;;-0.60;99.90;;;;;;4995173;28;20107;-73
2023/03/03 04:40:45;;;;;;;216.30;35.78;;;-0.90;99.90;;;;;;4980070;28;20140;-73
2023/03/03 04:43:13;;;;;;;267.33;38.90;;;-0.90;99.90;;;;;;5020980;28;20044;-73
2023/03/03 04:45:41;;;;;;;266.88;41.97;;;-1.00;99.90;;;;;;4988670;28;20044;-73
2023/03/03 04:48:08;;;;;;;258.70;38.75;;;-1.00;99.90;;;;;;5007380;28;20049;-73
2023/03/03 04:50:36;;;;;;;297.95;45.20;;;-1.00;99.90;;;;;;5053981;22;20044;-74
2023/03/03 04:53:03;;;;;;;414.02;46.58;;;-1.00;99.90;;;;;;5034587;28;20072;-75
2023/03/03 04:55:30;;;;;;;360.70;50.13;;;-1.00;99.90;;;;;;5010435;28;20143;-76
2023/03/03 04:57:57;;;;;;;567.85;67.15;;;-1.00;99.90;;;;;;5031453;28;20045;-77
2023/03/03 05:00:24;;;;;;;323.02;45.53;;;-0.90;99.90;;;;;;5030999;28;20048;-74
2023/03/03 05:02:51;;;;;;;399.80;49.13;;;-0.90;99.90;;;;;;5025089;28;20041;-76
2023/03/03 05:05:18;;;;;;;445.88;52.58;;;-0.90;99.90;;;;;;5018202;28;20104;-73
2023/03/03 05:07:45;;;;;;;470.98;51.67;;;-0.90;99.90;;;;;;5025402;28;20055;-75
2023/03/03 05:10:13;;;;;;;448.80;55.80;;;-0.90;99.90;;;;;;5021034;28;20052;-74
2023/03/03 05:12:39;;;;;;;494.08;64.30;;;-0.90;99.90;;;;;;5034892;28;20048;-75
2023/03/03 05:15:06;;;;;;;453.63;54.83;;;-0.80;99.90;;;;;;5056379;28;20052;-74
2023/03/03 05:17:33;;;;;;;266.98;43.63;;;-0.80;99.90;;;;;;5025100;28;20495;-74
2023/03/03 05:20:00;;;;;;;242.48;40.97;;;-0.80;99.90;;;;;;5043169;28;20047;-77
2023/03/03 05:22:27;;;;;;;315.80;46.28;;;-0.80;99.90;;;;;;5024404;28;20044;-75
2023/03/03 05:24:53;;;;;;;268.15;39.63;;;-0.80;99.90;;;;;;5037673;28;20061;-76
2023/03/03 05:27:20;;;;;;;196.23;28.48;;;-0.80;99.90;;;;;;5031912;28;20037;-77
2023/03/03 05:29:47;;;;;;;271.17;39.88;;;-0.90;99.90;;;;;;5020896;28;20036;-74
2023/03/03 05:32:14;;;;;;;266.95;37.92;;;-0.90;99.90;;;;;;5042839;28;20045;-75
2023/03/03 05:34:41;;;;;;;273.90;43.03;;;-0.90;99.90;;;;;;5032608;28;20640;-76
2023/03/03 05:37:08;;;;;;;247.25;37.00;;;-1.00;99.90;;;;;;5044585;28;20659;-74
2023/03/03 05:39:35;;;;;;;437.60;51.25;;;-0.90;99.90;;;;;;5033356;28;20132;-76
2023/03/03 05:42:02;;;;;;;258.30;41.13;;;-0.90;99.90;;;;;;5023124;28;20068;-72
2023/03/03 05:44:29;;;;;;;272.80;43.42;;;-0.80;99.90;;;;;;5032890;28;20041;-73
2023/03/03 05:46:56;;;;;;;189.60;34.47;;;-0.70;99.90;;;;;;5032490;28;20107;-73
2023/03/03 05:49:25;;;;;;;254.85;42.47;;;-0.70;99.90;;;;;;5031880;28;20036;-76
2023/03/03 05:51:52;;;;;;;223.80;36.30;;;-0.60;99.90;;;;;;5061142;28;20032;-74
2023/03/03 05:54:19;;;;;;;195.10;35.90;;;-0.60;99.90;;;;;;5024979;28;20043;-76
2023/03/03 05:56:45;;;;;;;169.05;32.28;;;-0.70;99.90;;;;;;5033107;28;20044;-76
2023/03/03 05:59:12;;;;;;;252.95;36.08;;;-0.80;99.90;;;;;;5035283;28;20152;-77
2023/03/03 06:01:39;;;;;;;150.15;24.38;;;-0.90;99.90;;;;;;5015841;28;20055;-77
2023/03/03 06:04:06;;;;;;;207.55;33.15;;;-1.00;99.90;;;;;;5052133;28;20040;-73
2023/03/03 06:06:33;;;;;;;243.13;36.05;;;-1.10;99.90;;;;;;5056136;28;20662;-74
2023/03/03 06:08:59;;;;;;;255.27;34.85;;;-1.10;99.90;;;;;;5039826;28;20504;-75
2023/03/03 06:11:27;;;;;;;192.05;27.92;;;-1.10;99.90;;;;;;5038680;28;20180;-75
2023/03/03 06:13:53;;;;;;;320.63;41.60;;;-1.10;99.90;;;;;;5038123;28;20044;-76
2023/03/03 06:16:20;;;;;;;310.70;40.90;;;-1.00;99.90;;;;;;5020412;28;20064;-74
2023/03/03 06:18:47;;;;;;;274.13;43.03;;;-1.00;99.90;;;;;;5028816;28;20056;-74
2023/03/03 06:21:14;;;;;;;295.10;43.20;;;-0.90;99.90;;;;;;5037566;28;20144;-74
2023/03/03 06:23:40;;;;;;;362.73;48.78;;;-0.90;99.90;;;;;;5057326;28;20079;-75
2023/03/03 06:26:07;;;;;;;374.13;47.75;;;-0.80;99.90;;;;;;5029805;28;20048;-75
2023/03/03 06:28:34;;;;;;;232.05;34.90;;;-0.70;99.90;;;;;;5040082;28;20051;-73
2023/03/03 06:31:01;;;;;;;328.52;45.92;;;-0.70;99.90;;;;;;5039025;28;20057;-74
2023/03/03 06:33:28;;;;;;;629.15;69.45;;;-0.80;99.90;;;;;;5031634;28;20579;-72
2023/03/03 06:35:54;;;;;;;294.88;43.63;;;-0.80;99.90;;;;;;5042297;28;20044;-72
2023/03/03 06:38:21;;;;;;;411.45;50.58;;;-0.80;99.90;;;;;;5038672;28;20113;-71
2023/03/03 06:40:48;;;;;;;380.60;45.75;;;-0.70;99.90;;;;;;5022044;28;20127;-73
2023/03/03 06:43:14;;;;;;;266.17;39.88;;;-0.70;99.90;;;;;;5018284;28;20041;-72
2023/03/03 06:45:42;;;;;;;215.02;37.83;;;-0.50;99.90;;;;;;5038346;28;20044;-76
2023/03/03 06:48:12;;;;;;;191.50;35.75;;;-0.50;99.90;;;;;;5048337;28;20048;-76
2023/03/03 06:50:38;;;;;;;208.88;34.38;;;-0.60;99.90;;;;;;5022510;28;20056;-74
2023/03/03 06:53:14;;;;;;;183.23;32.83;;;-0.70;99.90;;;;;;5041084;28;20266;-76
2023/03/03 06:55:43;;;;;;;122.90;27.80;;;-0.90;99.90;;;;;;5023447;28;20043;-75
2023/03/03 06:58:13;;;;;;;172.85;30.73;;;-1.00;99.90;;;;;;5048283;28;20637;-77
2023/03/03 07:00:42;;;;;;;165.95;34.00;;;-1.00;99.90;;;;;;5043778;28;20614;-76
2023/03/03 07:03:24;;;;;;;182.45;35.55;;;-0.90;99.90;;;;;;5047413;28;20068;-72
2023/03/03 07:05:52;;;;;;;125.43;26.40;;;-0.80;99.90;;;;;;5037536;28;20040;-75
2023/03/03 07:08:22;;;;;;;123.45;28.40;;;-0.80;99.90;;;;;;5037607;28;20055;-71
2023/03/03 07:10:50;;;;;;;156.65;26.25;;;-0.70;99.90;;;;;;5017382;28;20049;-76
2023/03/03 07:13:24;;;;;;;108.35;25.08;;;-0.80;99.90;;;;;;5042864;28;20055;-74
2023/03/03 07:15:57;;;;;;;145.65;27.33;;;-0.70;99.90;;;;;;5042564;28;20139;-76
2023/03/03 07:18:53;;;;;;;155.18;27.40;;;-1.00;99.90;;;;;;5032107;28;20045;-74
2023/03/03 07:21:31;;;;;;;98.35;22.65;;;-1.10;99.90;;;;;;5008380;28;20048;-74
2023/03/03 07:24:00;;;;;;;97.93;23.15;;;-1.00;99.90;;;;;;5038566;28;20051;-74
2023/03/03 07:26:31;;;;;;;99.22;24.15;;;-1.00;99.90;;;;;;5026931;28;20051;-76
2023/03/03 07:29:26;;;;;;;94.88;24.02;;;-0.90;99.90;;;;;;5043074;28;20408;-75
2023/03/03 07:31:56;;;;;;;120.03;24.88;;;-0.90;99.90;;;;;;5024784;28;20083;-75
2023/03/03 07:34:43;;;;;;;106.85;25.42;;;-0.80;99.90;;;;;;5047004;28;20447;-75
2023/03/03 07:37:24;;;;;;;118.30;26.02;;;-0.80;99.90;;;;;;5016017;28;20055;-75
2023/03/03 07:39:51;;;;;;;225.77;42.05;;;-0.80;99.90;;;;;;5042164;28;20124;-75
2023/03/03 07:42:28;;;;;;;96.22;22.50;;;-0.80;99.90;;;;;;5030940;28;20052;-74
2023/03/03 07:45:37;;;;;;;98.20;23.23;;;-0.80;99.90;;;;;;5045060;28;20044;-76
2023/03/03 07:48:21;;;;;;;91.32;22.70;;;-0.80;99.90;;;;;;5038710;28;20036;-73
2023/03/03 07:50:48;;;;;;;108.65;23.52;;;-0.90;99.90;;;;;;5044394;28;20043;-75
2023/03/03 07:53:41;;;;;;;99.30;26.83;;;-1.00;99.90;;;;;;5017934;28;20709;-75
2023/03/03 07:56:25;;;;;;;91.68;25.85;;;-0.90;99.90;;;;;;5038778;28;20058;-76
2023/03/03 07:58:54;;;;;;;138.63;29.65;;;-0.80;99.90;;;;;;5045880;28;20045;-76
2023/03/03 08:01:38;;;;;;;101.90;24.83;;;-0.70;99.90;;;;;;5051316;28;20076;-74
2023/03/03 08:04:21;;;;;;;84.60;22.17;;;-0.70;99.90;;;;;;5048399;28;20059;-77
2023/03/03 08:07:00;;;;;;;90.15;26.05;;;-0.60;99.90;;;;;;5043585;28;20229;-78
2023/03/03 08:09:34;;;;;;;120.38;27.58;;;-0.70;99.90;;;;;;5047486;28;20127;-76
2023/03/03 08:12:01;;;;;;;91.47;25.23;;;-0.70;99.90;;;;;;5037179;28;20063;-76
2023/03/03 08:14:30;;;;;;;93.00;24.33;;;-0.60;99.90;;;;;;5038359;28;20055;-75
2023/03/03 08:16:57;;;;;;;123.53;26.48;;;-0.40;99.90;;;;;;5050293;28;20382;-73
2023/03/03 08:19:29;;;;;;;105.00;26.48;;;-0.50;99.90;;;;;;5035110;28;20527;-75
2023/03/03 08:22:02;;;;;;;106.05;25.70;;;-0.40;99.90;;;;;;5049472;28;20036;-73
2023/03/03 08:24:29;;;;;;;80.40;22.20;;;-0.50;99.90;;;;;;5062819;28;20136;-73
2023/03/03 08:26:55;;;;;;;63.05;20.00;;;-0.40;99.90;;;;;;5029048;28;20044;-72
2023/03/03 08:29:22;;;;;;;59.72;20.17;;;-0.30;99.90;;;;;;5023228;28;20028;-73
2023/03/03 08:31:49;;;;;;;64.65;20.40;;;-0.10;99.90;;;;;;5031106;28;20072;-74
2023/03/03 08:34:15;;;;;;;54.00;17.80;;;0.10;99.90;;;;;;5038291;28;20078;-77
2023/03/03 08:36:46;;;;;;;52.05;17.88;;;0.20;99.90;;;;;;5038849;28;20820;-74
2023/03/03 08:39:13;;;;;;;51.58;18.42;;;0.20;99.90;;;;;;5022371;28;20331;-76
2023/03/03 08:41:42;;;;;;;58.47;20.30;;;0.20;99.90;;;;;;5056842;28;20043;-72
2023/03/03 08:44:10;;;;;;;60.03;20.90;;;0.00;99.90;;;;;;5034033;28;20611;-74
2023/03/03 08:46:37;;;;;;;63.15;23.10;;;0.00;99.90;;;;;;5038976;28;20037;-71
2023/03/03 08:49:04;;;;;;;63.75;21.85;;;0.10;99.90;;;;;;5033705;28;20044;-73
2023/03/03 08:51:33;;;;;;;62.50;21.35;;;0.10;99.90;;;;;;5023347;28;20299;-75
2023/03/03 08:53:59;;;;;;;56.35;21.83;;;0.20;99.90;;;;;;5041149;28;20036;-74
2023/03/03 08:56:26;;;;;;;55.03;21.17;;;0.30;99.90;;;;;;5038149;28;20040;-76
2023/03/03 08:58:53;;;;;;;52.25;19.60;;;0.40;99.90;;;;;;5038430;28;20148;-75
2023/03/03 09:01:29;;;;;;;51.13;19.52;;;0.30;99.90;;;;;;5036773;28;20774;-74
2023/03/03 09:03:55;;;;;;;72.38;20.67;;;0.30;99.90;;;;;;5038660;28;20568;-73
2023/03/03 09:06:22;;;;;;;85.50;22.35;;;0.10;99.90;;;;;;5030280;28;20064;-71
2023/03/03 09:08:49;;;;;;;77.03;22.08;;;0.00;99.90;;;;;;5037662;28;20032;-72
2023/03/03 09:11:26;;;;;;;68.80;22.27;;;0.00;99.90;;;;;;5050057;28;20627;-73
2023/03/03 09:14:13;;;;;;;58.92;19.42;;;0.20;99.90;;;;;;5030731;28;20159;-75
2023/03/03 09:16:51;;;;;;;55.50;19.23;;;0.30;99.90;;;;;;5034682;28;20177;-74
2023/03/03 09:19:31;;;;;;;49.88;17.60;;;0.20;99.90;;;;;;5061584;28;20118;-76
2023/03/03 09:22:13;;;;;;;51.08;17.98;;;0.20;99.90;;;;;;5040835;28;20037;-76
2023/03/03 09:24:41;;;;;;;49.67;17.83;;;0.10;99.90;;;;;;5039285;28;20491;-75
2023/03/03 09:27:33;;;;;;;53.97;18.90;;;0.10;99.90;;;;;;5061814;28;20040;-75
2023/03/03 09:30:15;;;;;;;53.78;19.30;;;0.10;99.90;;;;;;5037240;28;20045;-77
2023/03/03 09:32:42;;;;;;;60.15;21.02;;;0.00;99.90;;;;;;5052104;28;20544;-75
2023/03/03 09:35:35;;;;;;;54.92;18.02;;;0.20;99.90;;;;;;5027779;28;20037;-71
2023/03/03 09:38:30;;;;;;;51.90;19.25;;;0.30;99.90;;;;;;5027693;28;20040;-72
2023/03/03 09:41:36;;;;;;;57.00;18.08;;;0.30;99.90;;;;;;5037106;28;20036;-71
2023/03/03 09:44:18;;;;;;;50.40;18.90;;;0.40;99.90;;;;;;5037223;28;20041;-76
2023/03/03 09:46:58;;;;;;;54.60;18.85;;;0.40;99.90;;;;;;5031923;28;20544;-75
2023/03/03 09:49:28;;;;;;;59.13;18.52;;;0.20;99.90;;;;;;5032806;28;20033;-75
2023/03/03 09:52:50;;;;;;;53.88;18.63;;;0.20;99.90;;;;;;5034285;28;20052;-75
2023/03/03 09:55:27;;;;;;;43.38;17.83;;;0.20;99.90;;;;;;4980874;28;20046;-73
2023/03/03 09:58:13;;;;;;;43.17;16.83;;;0.50;99.90;;;;;;5040735;28;20797;-75
2023/03/03 10:00:49;;;;;;;40.45;15.65;;;0.60;99.90;;;;;;5055108;28;20051;-76
2023/03/03 10:03:31;;;;;;;45.42;17.52;;;0.60;99.90;;;;;;5036717;28;20040;-76
2023/03/03 10:06:03;;;;;;;42.05;16.38;;;0.70;99.90;;;;;;5034701;28;20047;-76
2023/03/03 10:08:42;;;;;;;42.35;18.25;;;0.80;99.90;;;;;;5028619;28;20048;-75
2023/03/03 10:11:21;;;;;;;40.50;16.77;;;0.60;99.90;;;;;;5047287;28;20086;-75
2023/03/03 10:14:08;;;;;;;41.03;18.50;;;0.80;99.90;;;;;;5056730;28;20048;-76
2023/03/03 10:16:44;;;;;;;37.08;19.10;;;0.90;99.90;;;;;;5050160;28;20128;-73
2023/03/03 10:19:34;;;;;;;38.60;17.50;;;1.10;99.90;;;;;;5037209;28;20071;-73
2023/03/03 10:22:33;;;;;;;34.22;18.75;;;1.20;99.90;;;;;;5030439;28;20124;-73
2023/03/03 10:25:06;;;;;;;35.28;18.38;;;1.20;99.90;;;;;;5041676;28;20047;-76
2023/03/03 10:28:00;;;;;;;38.05;19.75;;;1.40;99.90;;;;;;5058141;28;20058;-76
2023/03/03 10:30:52;;;;;;;34.28;18.08;;;1.20;99.90;;;;;;5030021;28;20055;-76
2023/03/03 10:33:48;;;;;;;34.20;19.60;;;1.40;99.90;;;;;;5030797;28;20045;-76
2023/03/03 10:36:50;;;;;;;35.28;21.40;;;1.70;99.90;;;;;;5031965;28;20040;-76
2023/03/03 10:39:38;;;;;;;38.22;20.83;;;1.30;99.90;;;;;;5035683;28;20398;-75
2023/03/03 10:42:23;;;;;;;36.13;22.80;;;1.30;99.90;;;;;;5044893;28;20041;-75
2023/03/03 10:45:17;;;;;;;32.92;22.85;;;1.40;99.90;;;;;;5012497;28;20497;-73
2023/03/03 10:48:08;;;;;;;35.55;22.95;;;1.60;99.90;;;;;;5011454;28;20041;-74
2023/03/03 10:51:13;;;;;;;33.55;24.98;;;1.90;99.90;;;;;;5031955;28;20561;-74
2023/03/03 10:53:48;;;;;;;36.30;25.13;;;2.10;99.90;;;;;;5033136;28;20049;-72
2023/03/03 10:56:30;;;;;;;45.38;27.27;;;2.10;99.90;;;;;;5029186;28;20064;-73
2023/03/03 10:59:40;;;;;;;32.55;23.42;;;2.10;99.90;;;;;;5037514;28;20052;-73
2023/03/03 11:02:31;;;;;;;33.35;23.98;;;2.30;99.90;;;;;;5031836;28;20040;-75
2023/03/03 11:05:29;;;;;;;31.88;24.30;;;2.40;99.90;;;;;;5031693;28;20114;-73
2023/03/03 11:08:02;;;;;;;37.35;25.38;;;2.40;99.90;;;;;;5035203;28;20071;-73
2023/03/03 11:10:47;;;;;;;34.78;26.08;;;2.40;99.90;;;;;;5035705;28;20106;-73
2023/03/03 11:13:26;;;;;;;32.83;25.73;;;2.40;99.90;;;;;;5038709;28;20591;-73
2023/03/03 11:16:02;;;;;;;29.38;24.15;;;2.40;99.90;;;;;;5032536;28;20051;-73
2023/03/03 11:19:11;;;;;;;31.73;23.48;;;2.40;99.90;;;;;;5040533;28;20049;-73
2023/03/03 11:21:53;;;;;;;33.03;24.45;;;2.40;99.90;;;;;;5033467;28;20075;-73
2023/03/03 11:24:39;;;;;;;35.55;28.70;;;2.50;99.90;;;;;;5031362;28;20103;-73
2023/03/03 11:27:15;;;;;;;;;;;2.60;99.90;;;;;;5036204;28;20131;-74
2023/03/03 11:29:47;;;;;;;;;;;2.70;99.90;;;;;;5035550;28;19921;-73
2023/03/03 11:32:40;;;;;;;31.83;28.50;;;2.90;99.90;;;;;;5030586;28;19928;-74
2023/03/03 11:35:34;;;;;;;30.58;26.92;;;3.00;99.90;;;;;;5040033;28;20715;-74
2023/03/03 11:38:09;;;;;;;31.27;27.40;;;2.90;99.90;;;;;;5034215;28;20218;-74
2023/03/03 11:40:45;;;;;;;31.48;28.25;;;2.90;99.90;;;;;;5032213;28;20167;-73
2023/03/03 11:43:36;;;;;;;32.05;28.15;;;2.80;99.90;;;;;;5037840;28;20048;-73
2023/03/03 11:46:11;;;;;;;31.13;28.02;;;2.80;99.90;;;;;;5038795;28;20127;-74
2023/03/03 11:49:15;;;;;;;30.95;27.85;;;3.20;99.90;;;;;;5031555;28;20049;-76
2023/03/03 11:51:42;;;;;;;31.80;28.77;;;3.60;99.90;;;;;;5024462;28;20056;-73
2023/03/03 11:54:18;;;;;;;31.85;29.02;;;3.70;99.90;;;;;;5022155;28;20759;-73
2023/03/03 11:56:47;;;;;;;33.10;29.75;;;3.00;99.90;;;;;;5064204;28;20044;-73
2023/03/03 11:59:59;;;;;;;31.38;28.38;;;2.80;99.90;;;;;;5058291;28;20580;-73
2023/03/03 12:02:44;;;;;;;32.33;29.20;;;2.60;99.90;;;;;;5041903;28;20040;-73
2023/03/03 12:05:44;;;;;;;33.83;27.67;;;2.90;99.90;;;;;;5009271;28;20110;-73
2023/03/03 12:08:40;;;;;;;31.35;27.95;;;3.30;99.90;;;;;;5051701;28;20128;-73
2023/03/03 12:11:26;;;;;;;32.13;28.77;;;3.60;99.90;;;;;;5060524;28;20406;-73
2023/03/03 12:13:56;;;;;;;31.13;28.23;;;3.50;99.90;;;;;;5031152;28;20067;-74
2023/03/03 12:16:47;;;;;;;31.23;28.23;;;3.60;99.90;;;;;;5058582;28;20049;-73
2023/03/03 12:19:24;;;;;;;33.25;30.10;;;3.70;99.90;;;;;;5040232;28;20118;-74
2023/03/03 12:22:12;;;;;;;33.97;30.67;;;3.90;99.90;;;;;;5030672;28;20088;-74
2023/03/03 12:25:09;;;;;;;38.67;33.22;;;4.20;99.90;;;;;;5022398;28;20040;-74
2023/03/03 12:27:53;;;;;;;35.10;31.58;;;4.40;99.90;;;;;;5054761;28;20079;-74
2023/03/03 12:30:49;;;;;;;33.30;30.15;;;4.50;99.90;;;;;;5056648;28;20041;-74
2023/03/03 12:33:32;;;;;;;;;;;4.30;99.90;;;;;;5014592;28;20041;-75
2023/03/03 12:36:17;;;;;;;33.15;30.00;;;4.40;99.90;;;;;;5050874;28;19920;-74
2023/03/03 12:38:59;;;;;;;33.60;30.38;;;4.50;99.90;;;;;;5054109;28;20032;-74
2023/03/03 12:41:54;;;;;;;33.95;30.23;;;4.40;99.90;;;;;;5038508;28;20049;-74
2023/03/03 12:44:47;;;;;;;35.60;31.92;;;4.30;99.90;;;;;;5047831;28;20174;-73
2023/03/03 12:47:17;;;;;;;36.10;32.40;;;4.20;99.90;;;;;;5044571;28;20040;-73
2023/03/03 12:50:17;;;;;;;33.88;30.27;;;4.00;99.90;;;;;;5031286;28;20132;-73
2023/03/03 12:53:15;;;;;;;33.42;30.05;;;4.20;99.90;;;;;;5037195;28;20527;-74
2023/03/03 12:56:08;;;;;;;33.72;30.30;;;4.20;99.90;;;;;;5033333;28;20125;-73
2023/03/03 12:58:57;;;;;;;35.78;32.15;;;4.20;99.90;;;;;;5049938;28;20115;-75
2023/03/03 13:01:52;;;;;;;33.55;30.05;;;4.30;99.90;;;;;;5036391;28;20069;-73
2023/03/03 13:04:30;;;;;;;33.03;29.80;;;4.30;99.90;;;;;;5035585;28;20482;-74